createdAt,value
2018-06-04T00:02:28.743Z,95.10
2018-06-04T00:07:22.060Z,95.80
2018-06-04T00:12:15.352Z,96.00
2018-06-04T00:17:08.683Z,96.30
2018-06-04T00:22:02.019Z,96.50
2018-06-04T00:26:55.343Z,96.50
2018-06-04T00:31:48.607Z,96.80
2018-06-04T00:36:41.896Z,96.80
2018-06-04T00:41:35.537Z,96.80
2018-06-04T00:46:28.820Z,96.80
2018-06-04T00:51:22.068Z,97.00
2018-06-04T00:56:23.878Z,97.00
2018-06-04T01:01:17.206Z,97.20
2018-06-04T01:06:10.570Z,97.30
2018-06-04T01:11:03.890Z,97.60
2018-06-04T01:15:57.225Z,97.80
2018-06-04T01:20:50.509Z,97.80
2018-06-04T01:25:43.801Z,97.80
2018-06-04T01:35:30.237Z,98.00
2018-06-04T01:40:23.571Z,98.20
2018-06-04T01:45:16.841Z,98.30
2018-06-04T01:50:10.159Z,98.50
2018-06-04T01:55:03.426Z,98.60
2018-06-04T01:59:56.698Z,98.70
2018-06-04T02:04:50.048Z,98.70
2018-06-04T02:09:43.283Z,98.70
2018-06-04T02:24:22.891Z,99.30
2018-06-04T02:29:16.282Z,99.50
2018-06-04T02:39:03.709Z,99.60
2018-06-04T02:43:57.011Z,99.60
2018-06-04T02:48:50.429Z,99.70
2018-06-04T02:53:43.749Z,99.70
2018-06-04T02:58:37.052Z,99.80
2018-06-04T03:13:16.702Z,99.70
2018-06-04T03:18:10.027Z,99.10
2018-06-04T03:23:03.312Z,99.50
2018-06-04T03:27:56.597Z,99.60
2018-06-04T03:32:50.955Z,99.50
2018-06-04T03:37:44.252Z,99.40
2018-06-04T03:42:37.573Z,99.40
2018-06-04T03:47:30.903Z,99.20
2018-06-04T03:52:24.174Z,99.10
2018-06-04T03:57:17.455Z,98.70
2018-06-04T04:02:10.765Z,98.50
2018-06-04T04:07:04.107Z,98.10
2018-06-04T04:11:57.415Z,97.50
2018-06-04T04:16:50.785Z,97.10
2018-06-04T04:26:37.286Z,96.70
2018-06-04T04:36:23.857Z,95.90
2018-06-04T04:41:17.314Z,95.70
2018-06-04T04:46:10.613Z,95.40
2018-06-04T04:51:03.918Z,94.30
2018-06-04T05:00:50.671Z,89.50
2018-06-04T05:10:37.182Z,75.80
2018-06-04T05:15:30.523Z,74.20
2018-06-04T05:20:23.839Z,70.90
2018-06-04T05:25:17.099Z,70.80
2018-06-04T05:30:10.385Z,71.90
2018-06-04T05:35:03.772Z,68.80
2018-06-04T05:39:57.061Z,67.70
2018-06-04T05:44:50.358Z,66.20
2018-06-04T05:49:43.715Z,60.20
2018-06-04T05:54:37.021Z,57.10
2018-06-04T05:59:30.414Z,58.40
2018-06-04T06:04:23.777Z,54.90
2018-06-04T06:09:17.119Z,54.70
2018-06-04T06:14:10.402Z,53.80
2018-06-04T06:19:03.720Z,51.80
2018-06-04T06:23:57.014Z,49.90
2018-06-04T06:28:50.286Z,45.80
2018-06-04T06:33:43.698Z,47.00
2018-06-04T06:38:37.122Z,47.20
2018-06-04T06:43:30.382Z,47.90
2018-06-04T06:48:23.699Z,46.10
2018-06-04T06:53:16.987Z,45.40
2018-06-04T06:58:10.358Z,42.60
2018-06-04T07:03:03.671Z,37.50
2018-06-04T07:07:56.978Z,38.60
2018-06-04T07:12:50.275Z,38.70
2018-06-04T07:17:43.624Z,37.80
2018-06-04T07:22:36.921Z,40.70
2018-06-04T07:27:30.241Z,39.90
2018-06-04T07:32:23.542Z,41.00
2018-06-04T07:37:16.849Z,41.40
2018-06-04T07:42:10.177Z,40.30
2018-06-04T07:51:56.716Z,34.20
2018-06-04T07:56:50.650Z,34.80
2018-06-04T08:01:44.800Z,33.40
2018-06-04T08:06:38.118Z,34.30
2018-06-04T08:11:31.407Z,34.90
2018-06-04T08:16:24.740Z,35.40
2018-06-04T08:21:18.065Z,37.80
2018-06-04T08:26:11.470Z,36.00
2018-06-04T08:31:04.762Z,31.90
2018-06-04T08:35:58.028Z,33.10
2018-06-04T08:40:52.290Z,33.60
2018-06-04T08:45:45.599Z,32.50
2018-06-04T08:50:38.897Z,32.10
2018-06-04T09:00:25.388Z,32.60
2018-06-04T09:05:18.659Z,32.20
2018-06-04T09:10:11.943Z,33.20
2018-06-04T09:15:06.335Z,33.10
2018-06-04T09:19:59.636Z,32.80
2018-06-04T09:24:53.040Z,35.40
2018-06-04T09:29:46.356Z,38.80
2018-06-04T09:34:39.671Z,40.80
2018-06-04T09:39:33.132Z,38.00
2018-06-04T09:44:26.385Z,37.00
2018-06-04T09:49:19.799Z,36.50
2018-06-04T09:54:13.107Z,36.90
2018-06-04T10:03:59.782Z,40.40
2018-06-04T10:08:53.189Z,37.60
2018-06-04T10:13:46.529Z,37.80
2018-06-04T10:23:33.262Z,39.10
2018-06-04T10:28:26.538Z,39.80
2018-06-04T10:33:19.862Z,40.20
2018-06-04T10:38:14.622Z,40.90
2018-06-04T10:43:07.996Z,38.60
2018-06-04T10:48:01.291Z,40.40
2018-06-04T10:57:47.907Z,42.80
2018-06-04T11:02:41.203Z,43.60
2018-06-04T11:07:34.492Z,43.80
2018-06-04T11:22:14.620Z,44.80
2018-06-04T11:27:07.974Z,45.90
2018-06-04T11:32:01.302Z,47.10
2018-06-04T11:36:54.696Z,46.20
2018-06-04T11:41:47.959Z,44.20
2018-06-04T11:46:41.254Z,43.60
2018-06-04T11:51:34.554Z,44.20
2018-06-04T11:56:27.846Z,43.50
2018-06-04T12:01:21.159Z,44.80
2018-06-04T12:06:14.461Z,44.40
2018-06-04T12:16:01.209Z,42.30
2018-06-04T12:20:54.524Z,42.20
2018-06-04T12:25:47.842Z,41.80
2018-06-04T12:35:34.371Z,41.90
2018-06-04T12:40:27.678Z,42.60
2018-06-04T12:45:20.948Z,42.80
2018-06-04T12:50:14.259Z,42.50
2018-06-04T12:55:07.579Z,43.90
2018-06-04T13:00:00.885Z,45.10
2018-06-04T13:04:54.331Z,45.40
2018-06-04T13:09:47.578Z,45.40
2018-06-04T13:14:40.896Z,44.20
2018-06-04T13:19:34.420Z,43.70
2018-06-04T13:24:27.713Z,43.30
2018-06-04T13:29:21.101Z,43.60
2018-06-04T13:34:14.429Z,43.80
2018-06-04T13:39:08.758Z,42.90
2018-06-04T13:44:02.092Z,43.40
2018-06-04T13:48:55.448Z,42.80
2018-06-04T13:53:48.744Z,44.00
2018-06-04T13:58:42.063Z,46.00
2018-06-04T14:03:35.343Z,47.30
2018-06-04T14:08:28.632Z,47.80
2018-06-04T14:13:22.003Z,48.40
2018-06-04T14:18:15.322Z,48.00
2018-06-04T14:23:08.623Z,49.10
2018-06-04T14:28:01.952Z,50.40
2018-06-04T14:32:55.220Z,51.00
2018-06-04T14:42:41.854Z,51.10
2018-06-04T14:47:35.237Z,51.00
2018-06-04T14:52:28.590Z,50.30
2018-06-04T14:57:21.871Z,48.30
2018-06-04T15:02:15.156Z,46.80
2018-06-04T15:07:08.444Z,49.70
2018-06-04T15:21:48.113Z,48.70
2018-06-04T15:26:41.425Z,48.00
2018-06-04T15:31:34.746Z,48.10
2018-06-04T15:36:28.111Z,49.90
2018-06-04T15:41:21.377Z,49.90
2018-06-04T15:51:07.910Z,49.30
2018-06-04T15:56:01.208Z,48.40
2018-06-04T16:05:47.755Z,51.80
2018-06-04T16:10:41.253Z,52.70
2018-06-04T16:15:34.516Z,52.90
2018-06-04T16:25:21.050Z,54.00
2018-06-04T16:30:14.428Z,53.90
2018-06-04T16:49:48.148Z,55.80
2018-06-04T16:59:34.811Z,58.40
2018-06-04T17:04:28.053Z,59.10
2018-06-04T17:09:21.486Z,59.40
2018-06-04T17:14:14.775Z,59.50
2018-06-04T17:19:08.245Z,57.40
2018-06-04T17:24:01.591Z,60.40
2018-06-04T17:33:48.292Z,64.50
2018-06-04T17:38:41.597Z,65.90
2018-06-04T17:43:34.996Z,66.70
2018-06-04T17:53:21.542Z,65.90
2018-06-04T18:08:01.502Z,67.60
2018-06-04T18:12:54.853Z,67.70
2018-06-04T18:22:41.466Z,69.00
2018-06-04T18:32:28.197Z,69.70
2018-06-04T18:37:21.620Z,70.40
2018-06-04T18:42:14.969Z,70.70
2018-06-04T18:47:08.510Z,70.70
2018-06-04T18:52:01.876Z,71.00
2018-06-04T18:56:55.258Z,71.80
2018-06-04T19:01:48.670Z,72.80
2018-06-04T19:06:42.098Z,73.10
2018-06-04T19:11:36.236Z,73.00
2018-06-04T19:16:29.586Z,73.70
2018-06-04T19:21:23.053Z,74.40
2018-06-04T19:31:09.659Z,75.10
2018-06-04T19:36:03.019Z,75.00
2018-06-04T19:40:56.323Z,75.30
2018-06-04T19:45:49.967Z,75.20
2018-06-04T19:50:43.299Z,75.20
2018-06-04T19:55:36.754Z,75.90
2018-06-04T20:00:30.264Z,76.40
2018-06-04T20:05:23.586Z,77.50
2018-06-04T20:10:16.907Z,78.50
2018-06-04T20:15:10.239Z,79.40
2018-06-04T20:20:04.948Z,80.20
2018-06-04T20:24:58.281Z,80.80
2018-06-04T20:29:51.692Z,81.10
2018-06-04T20:34:44.976Z,82.20
2018-06-04T20:39:38.280Z,82.30
2018-06-04T20:44:31.597Z,83.00
2018-06-04T20:54:18.230Z,83.80
2018-06-04T20:59:11.535Z,84.40
2018-06-04T21:08:58.126Z,84.60
2018-06-04T21:13:51.447Z,85.10
2018-06-04T21:18:44.800Z,85.60
2018-06-04T21:23:38.084Z,85.70
2018-06-04T21:28:31.574Z,85.80
2018-06-04T21:33:24.989Z,86.40
2018-06-04T21:38:18.273Z,87.10
2018-06-04T21:43:11.564Z,87.70
2018-06-04T21:48:04.923Z,87.80
2018-06-04T21:52:58.248Z,87.80
2018-06-04T21:57:51.729Z,88.60
2018-06-04T22:02:45.058Z,88.40
2018-06-04T22:07:38.699Z,88.90
2018-06-04T22:12:32.036Z,89.10
2018-06-04T22:17:25.408Z,89.60
2018-06-04T22:22:18.728Z,89.90
2018-06-04T22:27:12.175Z,90.30
2018-06-04T22:32:05.679Z,91.10
2018-06-04T22:36:59.000Z,90.90
2018-06-04T22:41:52.373Z,91.00
2018-06-04T22:46:45.695Z,91.20
2018-06-04T22:51:39.150Z,91.30
2018-06-04T22:56:32.433Z,91.60
2018-06-04T23:01:25.809Z,92.00
2018-06-04T23:06:19.148Z,92.30
2018-06-04T23:11:12.462Z,92.60
2018-06-04T23:16:05.837Z,92.90
2018-06-04T23:20:59.104Z,93.10
2018-06-04T23:25:52.470Z,93.30
2018-06-04T23:30:45.739Z,93.60
2018-06-04T23:35:39.152Z,93.90
2018-06-04T23:40:32.449Z,94.00
2018-06-04T23:45:25.735Z,94.30
2018-06-04T23:50:18.984Z,94.60
2018-06-04T23:55:12.280Z,94.70
